sensor_id;sensor_type;location;lat;lon;timestamp;P1;durP1;ratioP1;P2;durP2;ratioP2
65420;SDS011;52028;50.658;14.004;2022-07-29T00:00:40;6.88;;;3.03;;
65420;SDS011;52028;50.658;14.004;2022-07-29T00:03:06;7.00;;;3.03;;
65420;SDS011;52028;50.658;14.004;2022-07-29T00:05:31;7.40;;;3.28;;
65420;SDS011;52028;50.658;14.004;2022-07-29T00:07:56;6.43;;;3.33;;
65420;SDS011;52028;50.658;14.004;2022-07-29T00:10:22;5.55;;;3.28;;
65420;SDS011;52028;50.658;14.004;2022-07-29T00:12:47;5.40;;;3.20;;
65420;SDS011;52028;50.658;14.004;2022-07-29T00:15:12;4.70;;;2.80;;
65420;SDS011;52028;50.658;14.004;2022-07-29T00:17:38;5.45;;;3.03;;
65420;SDS011;52028;50.658;14.004;2022-07-29T00:20:03;7.85;;;2.95;;
65420;SDS011;52028;50.658;14.004;2022-07-29T00:22:29;4.60;;;2.50;;
65420;SDS011;52028;50.658;14.004;2022-07-29T00:24:55;4.57;;;2.80;;
65420;SDS011;52028;50.658;14.004;2022-07-29T00:27:20;6.35;;;2.72;;
65420;SDS011;52028;50.658;14.004;2022-07-29T00:29:46;4.75;;;2.50;;
65420;SDS011;52028;50.658;14.004;2022-07-29T00:32:12;5.90;;;2.88;;
65420;SDS011;52028;50.658;14.004;2022-07-29T00:34:37;7.93;;;3.00;;
65420;SDS011;52028;50.658;14.004;2022-07-29T00:37:21;4.78;;;3.03;;
65420;SDS011;52028;50.658;14.004;2022-07-29T00:39:47;7.07;;;3.33;;
65420;SDS011;52028;50.658;14.004;2022-07-29T00:42:12;4.65;;;3.00;;
65420;SDS011;52028;50.658;14.004;2022-07-29T00:44:38;6.28;;;3.55;;
65420;SDS011;52028;50.658;14.004;2022-07-29T00:47:05;5.18;;;3.30;;
65420;SDS011;52028;50.658;14.004;2022-07-29T00:49:31;9.23;;;3.22;;
65420;SDS011;52028;50.658;14.004;2022-07-29T00:51:57;10.65;;;3.30;;
65420;SDS011;52028;50.658;14.004;2022-07-29T00:54:22;6.35;;;3.50;;
65420;SDS011;52028;50.658;14.004;2022-07-29T00:56:48;9.85;;;3.83;;
65420;SDS011;52028;50.658;14.004;2022-07-29T00:59:14;5.47;;;3.05;;
65420;SDS011;52028;50.658;14.004;2022-07-29T01:01:39;6.13;;;3.40;;
65420;SDS011;52028;50.658;14.004;2022-07-29T01:04:05;6.40;;;3.38;;
65420;SDS011;52028;50.658;14.004;2022-07-29T01:06:31;4.47;;;3.20;;
65420;SDS011;52028;50.658;14.004;2022-07-29T01:08:58;8.40;;;3.15;;
65420;SDS011;52028;50.658;14.004;2022-07-29T01:11:24;5.78;;;3.28;;
65420;SDS011;52028;50.658;14.004;2022-07-29T01:13:50;6.90;;;3.08;;
65420;SDS011;52028;50.658;14.004;2022-07-29T01:16:37;7.38;;;3.63;;
65420;SDS011;52028;50.658;14.004;2022-07-29T01:30:24;6.63;;;3.45;;
65420;SDS011;52028;50.658;14.004;2022-07-29T01:32:54;7.18;;;3.28;;
65420;SDS011;52028;50.658;14.004;2022-07-29T01:35:25;10.73;;;3.75;;
65420;SDS011;52028;50.658;14.004;2022-07-29T01:38:01;8.25;;;4.07;;
65420;SDS011;52028;50.658;14.004;2022-07-29T01:40:34;7.45;;;4.00;;
65420;SDS011;52028;50.658;14.004;2022-07-29T01:43:09;7.00;;;3.83;;
65420;SDS011;52028;50.658;14.004;2022-07-29T01:45:50;6.63;;;3.60;;
65420;SDS011;52028;50.658;14.004;2022-07-29T01:48:22;8.05;;;4.13;;
65420;SDS011;52028;50.658;14.004;2022-07-29T01:53:20;7.93;;;4.10;;
65420;SDS011;52028;50.658;14.004;2022-07-29T01:55:50;7.18;;;4.47;;
65420;SDS011;52028;50.658;14.004;2022-07-29T01:58:17;12.20;;;4.50;;
65420;SDS011;52028;50.658;14.004;2022-07-29T02:00:45;7.90;;;4.00;;
65420;SDS011;52028;50.658;14.004;2022-07-29T02:03:12;9.45;;;4.20;;
65420;SDS011;52028;50.658;14.004;2022-07-29T02:05:40;10.20;;;4.07;;
65420;SDS011;52028;50.658;14.004;2022-07-29T02:08:07;7.47;;;4.13;;
65420;SDS011;52028;50.658;14.004;2022-07-29T02:10:34;7.97;;;3.70;;
65420;SDS011;52028;50.658;14.004;2022-07-29T02:13:02;6.80;;;3.90;;
65420;SDS011;52028;50.658;14.004;2022-07-29T02:15:29;9.63;;;4.43;;
65420;SDS011;52028;50.658;14.004;2022-07-29T02:18:01;8.40;;;4.13;;
65420;SDS011;52028;50.658;14.004;2022-07-29T02:20:32;8.93;;;4.28;;
65420;SDS011;52028;50.658;14.004;2022-07-29T02:22:59;8.02;;;4.00;;
65420;SDS011;52028;50.658;14.004;2022-07-29T02:25:25;10.93;;;4.30;;
65420;SDS011;52028;50.658;14.004;2022-07-29T02:27:52;8.32;;;4.63;;
65420;SDS011;52028;50.658;14.004;2022-07-29T02:30:19;10.75;;;4.82;;
65420;SDS011;52028;50.658;14.004;2022-07-29T02:32:47;11.02;;;4.85;;
65420;SDS011;52028;50.658;14.004;2022-07-29T02:35:14;14.52;;;5.40;;
65420;SDS011;52028;50.658;14.004;2022-07-29T02:37:42;16.45;;;8.57;;
65420;SDS011;52028;50.658;14.004;2022-07-29T02:40:10;13.88;;;7.85;;
65420;SDS011;52028;50.658;14.004;2022-07-29T02:42:38;15.93;;;9.70;;
65420;SDS011;52028;50.658;14.004;2022-07-29T02:45:07;15.70;;;9.00;;
65420;SDS011;52028;50.658;14.004;2022-07-29T02:47:36;14.68;;;7.32;;
65420;SDS011;52028;50.658;14.004;2022-07-29T02:50:11;15.43;;;8.20;;
65420;SDS011;52028;50.658;14.004;2022-07-29T02:55:28;10.52;;;5.60;;
65420;SDS011;52028;50.658;14.004;2022-07-29T02:58:03;7.97;;;4.35;;
65420;SDS011;52028;50.658;14.004;2022-07-29T03:00:37;13.48;;;4.60;;
65420;SDS011;52028;50.658;14.004;2022-07-29T03:03:05;7.77;;;4.40;;
65420;SDS011;52028;50.658;14.004;2022-07-29T03:05:34;10.95;;;5.15;;
65420;SDS011;52028;50.658;14.004;2022-07-29T03:08:01;10.85;;;5.00;;
65420;SDS011;52028;50.658;14.004;2022-07-29T03:10:29;9.05;;;5.18;;
65420;SDS011;52028;50.658;14.004;2022-07-29T03:12:56;8.43;;;4.80;;
65420;SDS011;52028;50.658;14.004;2022-07-29T03:15:22;19.27;;;5.80;;
65420;SDS011;52028;50.658;14.004;2022-07-29T03:17:49;15.63;;;5.15;;
65420;SDS011;52028;50.658;14.004;2022-07-29T03:20:17;14.55;;;5.80;;
65420;SDS011;52028;50.658;14.004;2022-07-29T03:22:43;10.52;;;5.50;;
65420;SDS011;52028;50.658;14.004;2022-07-29T03:25:11;12.80;;;5.88;;
65420;SDS011;52028;50.658;14.004;2022-07-29T03:27:39;12.18;;;5.80;;
65420;SDS011;52028;50.658;14.004;2022-07-29T03:30:05;14.57;;;5.57;;
65420;SDS011;52028;50.658;14.004;2022-07-29T03:32:31;13.10;;;5.28;;
65420;SDS011;52028;50.658;14.004;2022-07-29T03:34:56;12.68;;;5.40;;
65420;SDS011;52028;50.658;14.004;2022-07-29T03:37:22;10.95;;;5.05;;
65420;SDS011;52028;50.658;14.004;2022-07-29T03:39:48;11.95;;;5.00;;
65420;SDS011;52028;50.658;14.004;2022-07-29T03:42:16;9.70;;;5.55;;
65420;SDS011;52028;50.658;14.004;2022-07-29T03:44:45;13.98;;;5.65;;
65420;SDS011;52028;50.658;14.004;2022-07-29T03:47:12;16.77;;;5.80;;
65420;SDS011;52028;50.658;14.004;2022-07-29T03:49:39;12.05;;;5.47;;
65420;SDS011;52028;50.658;14.004;2022-07-29T03:52:06;17.52;;;5.00;;
65420;SDS011;52028;50.658;14.004;2022-07-29T03:54:32;13.48;;;5.28;;
65420;SDS011;52028;50.658;14.004;2022-07-29T03:56:59;11.70;;;5.32;;
65420;SDS011;52028;50.658;14.004;2022-07-29T03:59:26;9.25;;;5.00;;
65420;SDS011;52028;50.658;14.004;2022-07-29T04:01:52;11.57;;;4.57;;
65420;SDS011;52028;50.658;14.004;2022-07-29T04:04:20;7.10;;;4.45;;
65420;SDS011;52028;50.658;14.004;2022-07-29T04:06:46;9.80;;;5.03;;
65420;SDS011;52028;50.658;14.004;2022-07-29T04:09:11;5.95;;;4.03;;
65420;SDS011;52028;50.658;14.004;2022-07-29T04:11:40;9.48;;;5.05;;
65420;SDS011;52028;50.658;14.004;2022-07-29T04:14:07;13.95;;;5.93;;
65420;SDS011;52028;50.658;14.004;2022-07-29T04:16:32;10.50;;;6.05;;
65420;SDS011;52028;50.658;14.004;2022-07-29T04:18:57;12.80;;;6.30;;
65420;SDS011;52028;50.658;14.004;2022-07-29T04:21:23;7.65;;;5.03;;
65420;SDS011;52028;50.658;14.004;2022-07-29T04:23:49;11.20;;;5.95;;
65420;SDS011;52028;50.658;14.004;2022-07-29T04:26:15;14.75;;;6.05;;
65420;SDS011;52028;50.658;14.004;2022-07-29T04:28:44;14.75;;;6.38;;
65420;SDS011;52028;50.658;14.004;2022-07-29T04:31:10;12.25;;;5.70;;
65420;SDS011;52028;50.658;14.004;2022-07-29T04:33:36;11.07;;;5.30;;
65420;SDS011;52028;50.658;14.004;2022-07-29T04:36:01;11.82;;;5.60;;
65420;SDS011;52028;50.658;14.004;2022-07-29T04:38:27;11.90;;;6.15;;
65420;SDS011;52028;50.658;14.004;2022-07-29T04:40:52;14.88;;;6.05;;
65420;SDS011;52028;50.658;14.004;2022-07-29T04:43:39;13.35;;;5.97;;
65420;SDS011;52028;50.658;14.004;2022-07-29T04:46:05;9.15;;;5.22;;
65420;SDS011;52028;50.658;14.004;2022-07-29T04:48:31;10.25;;;5.28;;
65420;SDS011;52028;50.658;14.004;2022-07-29T04:50:57;13.05;;;5.78;;
65420;SDS011;52028;50.658;14.004;2022-07-29T04:53:22;14.57;;;6.30;;
65420;SDS011;52028;50.658;14.004;2022-07-29T04:55:48;12.63;;;5.80;;
65420;SDS011;52028;50.658;14.004;2022-07-29T04:58:13;11.45;;;5.85;;
65420;SDS011;52028;50.658;14.004;2022-07-29T05:00:39;15.73;;;5.97;;
65420;SDS011;52028;50.658;14.004;2022-07-29T05:03:05;13.20;;;6.55;;
65420;SDS011;52028;50.658;14.004;2022-07-29T05:05:30;14.88;;;6.40;;
65420;SDS011;52028;50.658;14.004;2022-07-29T05:07:56;13.73;;;5.65;;
65420;SDS011;52028;50.658;14.004;2022-07-29T05:10:21;17.35;;;6.70;;
65420;SDS011;52028;50.658;14.004;2022-07-29T05:12:47;21.75;;;6.85;;
65420;SDS011;52028;50.658;14.004;2022-07-29T05:15:12;14.00;;;6.88;;
65420;SDS011;52028;50.658;14.004;2022-07-29T05:17:38;14.50;;;6.63;;
65420;SDS011;52028;50.658;14.004;2022-07-29T05:20:04;14.70;;;7.35;;
65420;SDS011;52028;50.658;14.004;2022-07-29T05:22:30;16.67;;;7.05;;
65420;SDS011;52028;50.658;14.004;2022-07-29T05:24:55;11.45;;;6.32;;
65420;SDS011;52028;50.658;14.004;2022-07-29T05:27:21;15.25;;;6.82;;
65420;SDS011;52028;50.658;14.004;2022-07-29T05:29:46;11.93;;;7.25;;
65420;SDS011;52028;50.658;14.004;2022-07-29T05:32:12;15.98;;;7.30;;
65420;SDS011;52028;50.658;14.004;2022-07-29T05:34:38;16.73;;;7.78;;
65420;SDS011;52028;50.658;14.004;2022-07-29T05:37:03;12.82;;;7.22;;
65420;SDS011;52028;50.658;14.004;2022-07-29T05:39:29;14.48;;;7.25;;
65420;SDS011;52028;50.658;14.004;2022-07-29T05:41:54;13.82;;;6.78;;
65420;SDS011;52028;50.658;14.004;2022-07-29T05:44:19;15.65;;;6.82;;
65420;SDS011;52028;50.658;14.004;2022-07-29T05:46:45;15.68;;;6.70;;
65420;SDS011;52028;50.658;14.004;2022-07-29T05:49:10;17.10;;;6.95;;
65420;SDS011;52028;50.658;14.004;2022-07-29T05:51:35;10.73;;;7.28;;
65420;SDS011;52028;50.658;14.004;2022-07-29T05:54:01;21.67;;;7.40;;
65420;SDS011;52028;50.658;14.004;2022-07-29T05:56:26;12.10;;;6.57;;
65420;SDS011;52028;50.658;14.004;2022-07-29T05:58:52;13.55;;;6.13;;
65420;SDS011;52028;50.658;14.004;2022-07-29T06:01:17;9.15;;;6.22;;
65420;SDS011;52028;50.658;14.004;2022-07-29T06:03:43;12.60;;;6.50;;
65420;SDS011;52028;50.658;14.004;2022-07-29T06:06:09;15.15;;;6.80;;
65420;SDS011;52028;50.658;14.004;2022-07-29T06:08:34;15.10;;;6.22;;
65420;SDS011;52028;50.658;14.004;2022-07-29T06:11:01;16.00;;;6.50;;
65420;SDS011;52028;50.658;14.004;2022-07-29T06:13:27;11.88;;;6.90;;
65420;SDS011;52028;50.658;14.004;2022-07-29T06:15:53;18.40;;;6.45;;
65420;SDS011;52028;50.658;14.004;2022-07-29T06:18:18;15.73;;;6.85;;
65420;SDS011;52028;50.658;14.004;2022-07-29T06:20:45;13.35;;;6.15;;
65420;SDS011;52028;50.658;14.004;2022-07-29T06:23:11;15.13;;;6.65;;
65420;SDS011;52028;50.658;14.004;2022-07-29T06:25:36;24.75;;;7.55;;
65420;SDS011;52028;50.658;14.004;2022-07-29T06:28:02;12.35;;;5.82;;
65420;SDS011;52028;50.658;14.004;2022-07-29T06:30:28;9.63;;;5.97;;
65420;SDS011;52028;50.658;14.004;2022-07-29T06:32:54;18.98;;;6.82;;
65420;SDS011;52028;50.658;14.004;2022-07-29T06:35:20;11.23;;;5.80;;
65420;SDS011;52028;50.658;14.004;2022-07-29T06:37:46;11.40;;;5.40;;
65420;SDS011;52028;50.658;14.004;2022-07-29T06:40:12;14.82;;;5.63;;
65420;SDS011;52028;50.658;14.004;2022-07-29T06:42:56;10.02;;;5.57;;
65420;SDS011;52028;50.658;14.004;2022-07-29T06:45:21;12.07;;;5.43;;
65420;SDS011;52028;50.658;14.004;2022-07-29T06:47:47;20.83;;;6.55;;
65420;SDS011;52028;50.658;14.004;2022-07-29T06:50:13;21.13;;;5.65;;
65420;SDS011;52028;50.658;14.004;2022-07-29T06:52:39;11.10;;;5.35;;
65420;SDS011;52028;50.658;14.004;2022-07-29T06:55:05;22.27;;;6.03;;
65420;SDS011;52028;50.658;14.004;2022-07-29T06:57:30;10.10;;;5.10;;
65420;SDS011;52028;50.658;14.004;2022-07-29T06:59:57;20.02;;;6.32;;
65420;SDS011;52028;50.658;14.004;2022-07-29T07:02:22;17.92;;;6.22;;
65420;SDS011;52028;50.658;14.004;2022-07-29T07:04:48;13.23;;;5.40;;
65420;SDS011;52028;50.658;14.004;2022-07-29T07:07:13;11.32;;;5.60;;
65420;SDS011;52028;50.658;14.004;2022-07-29T07:09:38;13.70;;;4.97;;
65420;SDS011;52028;50.658;14.004;2022-07-29T07:12:04;11.93;;;5.10;;
65420;SDS011;52028;50.658;14.004;2022-07-29T07:14:29;10.85;;;5.25;;
65420;SDS011;52028;50.658;14.004;2022-07-29T07:16:55;14.82;;;5.05;;
65420;SDS011;52028;50.658;14.004;2022-07-29T07:19:20;10.85;;;4.80;;
65420;SDS011;52028;50.658;14.004;2022-07-29T07:21:45;14.68;;;5.20;;
65420;SDS011;52028;50.658;14.004;2022-07-29T07:24:11;11.75;;;4.90;;
65420;SDS011;52028;50.658;14.004;2022-07-29T07:26:36;11.65;;;4.95;;
65420;SDS011;52028;50.658;14.004;2022-07-29T07:29:02;11.77;;;4.70;;
65420;SDS011;52028;50.658;14.004;2022-07-29T07:31:28;13.82;;;4.97;;
65420;SDS011;52028;50.658;14.004;2022-07-29T07:33:53;13.95;;;4.85;;
65420;SDS011;52028;50.658;14.004;2022-07-29T07:36:19;8.43;;;4.82;;
65420;SDS011;52028;50.658;14.004;2022-07-29T07:38:44;7.57;;;4.43;;
65420;SDS011;52028;50.658;14.004;2022-07-29T07:41:10;5.68;;;4.00;;
65420;SDS011;52028;50.658;14.004;2022-07-29T07:43:35;7.03;;;4.65;;
65420;SDS011;52028;50.658;14.004;2022-07-29T07:46:00;6.78;;;4.47;;
65420;SDS011;52028;50.658;14.004;2022-07-29T07:48:26;5.68;;;3.95;;
65420;SDS011;52028;50.658;14.004;2022-07-29T07:50:51;12.23;;;5.18;;
65420;SDS011;52028;50.658;14.004;2022-07-29T07:53:17;9.50;;;4.10;;
65420;SDS011;52028;50.658;14.004;2022-07-29T07:55:42;9.55;;;4.07;;
65420;SDS011;52028;50.658;14.004;2022-07-29T07:58:08;10.80;;;3.70;;
65420;SDS011;52028;50.658;14.004;2022-07-29T08:00:34;6.53;;;4.15;;
65420;SDS011;52028;50.658;14.004;2022-07-29T08:03:00;7.68;;;4.13;;
65420;SDS011;52028;50.658;14.004;2022-07-29T08:05:25;9.43;;;4.80;;
65420;SDS011;52028;50.658;14.004;2022-07-29T08:07:51;8.55;;;4.97;;
65420;SDS011;52028;50.658;14.004;2022-07-29T08:10:20;6.90;;;4.57;;
65420;SDS011;52028;50.658;14.004;2022-07-29T08:13:04;11.75;;;4.20;;
65420;SDS011;52028;50.658;14.004;2022-07-29T08:15:31;9.07;;;4.25;;
65420;SDS011;52028;50.658;14.004;2022-07-29T08:18:00;7.47;;;4.38;;
65420;SDS011;52028;50.658;14.004;2022-07-29T08:20:26;8.77;;;3.92;;
65420;SDS011;52028;50.658;14.004;2022-07-29T08:22:52;10.32;;;4.32;;
65420;SDS011;52028;50.658;14.004;2022-07-29T08:25:18;8.32;;;3.78;;
65420;SDS011;52028;50.658;14.004;2022-07-29T08:27:45;6.72;;;3.55;;
65420;SDS011;52028;50.658;14.004;2022-07-29T08:30:11;8.63;;;3.88;;
65420;SDS011;52028;50.658;14.004;2022-07-29T08:32:37;8.18;;;3.90;;
65420;SDS011;52028;50.658;14.004;2022-07-29T08:35:02;7.97;;;3.85;;
65420;SDS011;52028;50.658;14.004;2022-07-29T08:37:28;9.20;;;3.72;;
65420;SDS011;52028;50.658;14.004;2022-07-29T08:39:53;8.48;;;3.97;;
65420;SDS011;52028;50.658;14.004;2022-07-29T08:42:18;8.63;;;3.95;;
65420;SDS011;52028;50.658;14.004;2022-07-29T08:44:44;8.35;;;4.60;;
65420;SDS011;52028;50.658;14.004;2022-07-29T08:47:10;6.47;;;3.88;;
65420;SDS011;52028;50.658;14.004;2022-07-29T08:49:39;6.35;;;3.78;;
65420;SDS011;52028;50.658;14.004;2022-07-29T08:52:05;5.20;;;3.22;;
65420;SDS011;52028;50.658;14.004;2022-07-29T08:54:31;5.68;;;3.40;;
65420;SDS011;52028;50.658;14.004;2022-07-29T08:56:57;7.18;;;3.47;;
65420;SDS011;52028;50.658;14.004;2022-07-29T08:59:24;8.95;;;3.30;;
65420;SDS011;52028;50.658;14.004;2022-07-29T09:01:52;7.73;;;4.23;;
65420;SDS011;52028;50.658;14.004;2022-07-29T09:04:18;7.95;;;3.38;;
65420;SDS011;52028;50.658;14.004;2022-07-29T09:06:46;7.22;;;3.70;;
65420;SDS011;52028;50.658;14.004;2022-07-29T09:09:13;9.47;;;3.87;;
65420;SDS011;52028;50.658;14.004;2022-07-29T09:11:39;8.60;;;3.85;;
65420;SDS011;52028;50.658;14.004;2022-07-29T09:14:05;9.15;;;3.60;;
65420;SDS011;52028;50.658;14.004;2022-07-29T09:16:44;5.85;;;3.65;;
65420;SDS011;52028;50.658;14.004;2022-07-29T09:19:26;5.47;;;3.65;;
65420;SDS011;52028;50.658;14.004;2022-07-29T09:21:53;8.00;;;3.53;;
65420;SDS011;52028;50.658;14.004;2022-07-29T09:24:22;6.93;;;3.60;;
65420;SDS011;52028;50.658;14.004;2022-07-29T09:26:48;7.78;;;3.70;;
65420;SDS011;52028;50.658;14.004;2022-07-29T09:29:14;5.50;;;3.42;;
65420;SDS011;52028;50.658;14.004;2022-07-29T09:31:45;4.72;;;3.63;;
65420;SDS011;52028;50.658;14.004;2022-07-29T09:34:12;6.13;;;3.85;;
65420;SDS011;52028;50.658;14.004;2022-07-29T09:36:46;13.00;;;3.72;;
65420;SDS011;52028;50.658;14.004;2022-07-29T09:39:13;6.53;;;3.60;;
65420;SDS011;52028;50.658;14.004;2022-07-29T09:41:43;9.35;;;3.60;;
65420;SDS011;52028;50.658;14.004;2022-07-29T09:49:31;7.10;;;3.55;;
65420;SDS011;52028;50.658;14.004;2022-07-29T09:52:01;9.80;;;3.92;;
65420;SDS011;52028;50.658;14.004;2022-07-29T09:56:59;10.90;;;3.42;;
65420;SDS011;52028;50.658;14.004;2022-07-29T09:59:24;6.93;;;3.40;;
65420;SDS011;52028;50.658;14.004;2022-07-29T10:01:51;8.80;;;3.50;;
65420;SDS011;52028;50.658;14.004;2022-07-29T10:04:17;6.93;;;3.42;;
65420;SDS011;52028;50.658;14.004;2022-07-29T10:06:59;4.97;;;3.25;;
65420;SDS011;52028;50.658;14.004;2022-07-29T10:09:26;6.20;;;3.72;;
65420;SDS011;52028;50.658;14.004;2022-07-29T10:12:25;7.13;;;3.83;;
65420;SDS011;52028;50.658;14.004;2022-07-29T10:14:43;6.70;;;3.45;;
65420;SDS011;52028;50.658;14.004;2022-07-29T10:17:09;8.13;;;4.05;;
65420;SDS011;52028;50.658;14.004;2022-07-29T10:19:36;7.88;;;3.78;;
65420;SDS011;52028;50.658;14.004;2022-07-29T10:22:03;7.78;;;3.65;;
65420;SDS011;52028;50.658;14.004;2022-07-29T10:24:31;7.68;;;3.60;;
65420;SDS011;52028;50.658;14.004;2022-07-29T10:26:58;9.45;;;3.53;;
65420;SDS011;52028;50.658;14.004;2022-07-29T10:29:25;5.13;;;3.33;;
65420;SDS011;52028;50.658;14.004;2022-07-29T10:32:05;6.50;;;3.80;;
65420;SDS011;52028;50.658;14.004;2022-07-29T10:43:33;7.82;;;3.65;;
65420;SDS011;52028;50.658;14.004;2022-07-29T10:46:02;5.30;;;3.50;;
65420;SDS011;52028;50.658;14.004;2022-07-29T10:48:28;6.30;;;3.67;;
65420;SDS011;52028;50.658;14.004;2022-07-29T10:50:55;7.50;;;3.95;;
65420;SDS011;52028;50.658;14.004;2022-07-29T10:53:45;7.53;;;3.63;;
65420;SDS011;52028;50.658;14.004;2022-07-29T10:56:28;5.75;;;4.03;;
65420;SDS011;52028;50.658;14.004;2022-07-29T11:02:03;5.72;;;3.85;;
65420;SDS011;52028;50.658;14.004;2022-07-29T11:07:22;7.28;;;4.00;;
65420;SDS011;52028;50.658;14.004;2022-07-29T11:15:10;5.95;;;3.63;;
65420;SDS011;52028;50.658;14.004;2022-07-29T11:23:25;6.30;;;3.70;;
65420;SDS011;52028;50.658;14.004;2022-07-29T11:28:50;5.95;;;4.30;;
65420;SDS011;52028;50.658;14.004;2022-07-29T11:31:17;12.13;;;4.63;;
65420;SDS011;52028;50.658;14.004;2022-07-29T11:33:57;6.18;;;3.80;;
65420;SDS011;52028;50.658;14.004;2022-07-29T11:39:38;6.00;;;3.72;;
65420;SDS011;52028;50.658;14.004;2022-07-29T11:44:59;7.13;;;4.20;;
65420;SDS011;52028;50.658;14.004;2022-07-29T11:47:31;11.07;;;4.30;;
65420;SDS011;52028;50.658;14.004;2022-07-29T11:50:02;6.88;;;3.78;;
65420;SDS011;52028;50.658;14.004;2022-07-29T11:52:33;6.80;;;3.63;;
65420;SDS011;52028;50.658;14.004;2022-07-29T11:55:08;11.73;;;5.40;;
65420;SDS011;52028;50.658;14.004;2022-07-29T11:57:34;6.47;;;4.00;;
65420;SDS011;52028;50.658;14.004;2022-07-29T12:00:00;14.98;;;13.57;;
65420;SDS011;52028;50.658;14.004;2022-07-29T12:02:37;5.35;;;3.50;;
65420;SDS011;52028;50.658;14.004;2022-07-29T12:05:04;12.88;;;4.35;;
65420;SDS011;52028;50.658;14.004;2022-07-29T12:07:30;6.47;;;3.72;;
65420;SDS011;52028;50.658;14.004;2022-07-29T12:09:57;7.47;;;3.75;;
65420;SDS011;52028;50.658;14.004;2022-07-29T12:12:23;5.93;;;3.50;;
65420;SDS011;52028;50.658;14.004;2022-07-29T12:14:48;5.60;;;3.70;;
65420;SDS011;52028;50.658;14.004;2022-07-29T12:20:09;7.35;;;3.60;;
65420;SDS011;52028;50.658;14.004;2022-07-29T12:22:36;7.43;;;4.22;;
65420;SDS011;52028;50.658;14.004;2022-07-29T12:25:09;5.95;;;3.35;;
65420;SDS011;52028;50.658;14.004;2022-07-29T12:27:36;7.65;;;3.70;;
65420;SDS011;52028;50.658;14.004;2022-07-29T12:30:10;4.80;;;3.97;;
65420;SDS011;52028;50.658;14.004;2022-07-29T12:32:47;6.53;;;4.18;;
65420;SDS011;52028;50.658;14.004;2022-07-29T12:35:19;6.97;;;3.97;;
65420;SDS011;52028;50.658;14.004;2022-07-29T12:37:46;5.53;;;3.60;;
65420;SDS011;52028;50.658;14.004;2022-07-29T12:40:17;8.65;;;3.72;;
65420;SDS011;52028;50.658;14.004;2022-07-29T12:45:35;5.97;;;3.40;;
65420;SDS011;52028;50.658;14.004;2022-07-29T12:48:03;7.43;;;3.63;;
65420;SDS011;52028;50.658;14.004;2022-07-29T12:50:29;5.82;;;3.97;;
65420;SDS011;52028;50.658;14.004;2022-07-29T12:53:07;6.35;;;3.83;;
65420;SDS011;52028;50.658;14.004;2022-07-29T12:55:41;9.52;;;3.53;;
65420;SDS011;52028;50.658;14.004;2022-07-29T12:58:08;5.30;;;3.63;;
65420;SDS011;52028;50.658;14.004;2022-07-29T13:00:33;6.22;;;3.80;;
65420;SDS011;52028;50.658;14.004;2022-07-29T13:02:59;7.20;;;3.60;;
65420;SDS011;52028;50.658;14.004;2022-07-29T13:05:44;5.70;;;3.67;;
65420;SDS011;52028;50.658;14.004;2022-07-29T13:08:14;4.78;;;3.53;;
65420;SDS011;52028;50.658;14.004;2022-07-29T13:10:41;7.05;;;3.42;;
65420;SDS011;52028;50.658;14.004;2022-07-29T13:13:10;7.60;;;3.40;;
65420;SDS011;52028;50.658;14.004;2022-07-29T13:15:40;7.18;;;3.65;;
65420;SDS011;52028;50.658;14.004;2022-07-29T13:20:54;6.50;;;3.20;;
65420;SDS011;52028;50.658;14.004;2022-07-29T13:23:20;9.13;;;3.80;;
65420;SDS011;52028;50.658;14.004;2022-07-29T13:25:45;5.60;;;3.65;;
65420;SDS011;52028;50.658;14.004;2022-07-29T13:28:11;5.90;;;3.60;;
65420;SDS011;52028;50.658;14.004;2022-07-29T13:30:36;4.75;;;3.38;;
65420;SDS011;52028;50.658;14.004;2022-07-29T13:33:02;7.00;;;3.40;;
65420;SDS011;52028;50.658;14.004;2022-07-29T13:35:28;6.00;;;3.45;;
65420;SDS011;52028;50.658;14.004;2022-07-29T13:37:54;7.47;;;3.80;;
65420;SDS011;52028;50.658;14.004;2022-07-29T13:40:19;7.72;;;3.28;;
65420;SDS011;52028;50.658;14.004;2022-07-29T13:42:45;5.25;;;3.17;;
65420;SDS011;52028;50.658;14.004;2022-07-29T13:45:10;4.03;;;3.40;;
65420;SDS011;52028;50.658;14.004;2022-07-29T13:47:36;6.20;;;3.10;;
65420;SDS011;52028;50.658;14.004;2022-07-29T13:50:02;4.88;;;3.30;;
65420;SDS011;52028;50.658;14.004;2022-07-29T13:52:29;10.18;;;3.85;;
65420;SDS011;52028;50.658;14.004;2022-07-29T13:54:54;5.10;;;3.40;;
65420;SDS011;52028;50.658;14.004;2022-07-29T13:57:20;7.63;;;3.83;;
65420;SDS011;52028;50.658;14.004;2022-07-29T13:59:45;4.32;;;3.00;;
65420;SDS011;52028;50.658;14.004;2022-07-29T14:02:11;4.00;;;2.80;;
65420;SDS011;52028;50.658;14.004;2022-07-29T14:04:37;4.00;;;3.08;;
65420;SDS011;52028;50.658;14.004;2022-07-29T14:07:03;4.57;;;3.10;;
65420;SDS011;52028;50.658;14.004;2022-07-29T14:09:29;3.70;;;2.88;;
65420;SDS011;52028;50.658;14.004;2022-07-29T14:11:55;6.20;;;3.05;;
65420;SDS011;52028;50.658;14.004;2022-07-29T14:14:20;5.07;;;3.30;;
65420;SDS011;52028;50.658;14.004;2022-07-29T14:16:46;3.33;;;2.60;;
65420;SDS011;52028;50.658;14.004;2022-07-29T14:19:11;5.38;;;3.13;;
65420;SDS011;52028;50.658;14.004;2022-07-29T14:21:37;5.88;;;3.33;;
65420;SDS011;52028;50.658;14.004;2022-07-29T14:24:03;6.75;;;3.60;;
65420;SDS011;52028;50.658;14.004;2022-07-29T14:26:29;5.53;;;2.83;;
65420;SDS011;52028;50.658;14.004;2022-07-29T14:28:54;6.35;;;3.17;;
65420;SDS011;52028;50.658;14.004;2022-07-29T14:31:20;5.75;;;2.65;;
65420;SDS011;52028;50.658;14.004;2022-07-29T14:33:45;8.57;;;2.92;;
65420;SDS011;52028;50.658;14.004;2022-07-29T14:36:10;4.75;;;3.10;;
65420;SDS011;52028;50.658;14.004;2022-07-29T14:38:36;3.95;;;3.10;;
65420;SDS011;52028;50.658;14.004;2022-07-29T14:41:02;5.55;;;3.38;;
65420;SDS011;52028;50.658;14.004;2022-07-29T14:43:28;4.43;;;3.38;;
65420;SDS011;52028;50.658;14.004;2022-07-29T14:45:54;6.40;;;3.28;;
65420;SDS011;52028;50.658;14.004;2022-07-29T14:48:19;7.35;;;3.55;;
65420;SDS011;52028;50.658;14.004;2022-07-29T14:50:44;4.55;;;3.10;;
65420;SDS011;52028;50.658;14.004;2022-07-29T14:53:10;5.15;;;3.10;;
65420;SDS011;52028;50.658;14.004;2022-07-29T14:55:36;4.80;;;3.70;;
65420;SDS011;52028;50.658;14.004;2022-07-29T14:58:02;3.80;;;2.90;;
65420;SDS011;52028;50.658;14.004;2022-07-29T15:00:27;6.78;;;3.20;;
65420;SDS011;52028;50.658;14.004;2022-07-29T15:02:57;7.53;;;3.20;;
65420;SDS011;52028;50.658;14.004;2022-07-29T15:05:22;5.47;;;3.33;;
65420;SDS011;52028;50.658;14.004;2022-07-29T15:07:48;4.68;;;3.22;;
65420;SDS011;52028;50.658;14.004;2022-07-29T15:10:13;6.45;;;2.92;;
65420;SDS011;52028;50.658;14.004;2022-07-29T15:12:39;7.57;;;3.03;;
65420;SDS011;52028;50.658;14.004;2022-07-29T15:15:05;5.97;;;3.03;;
65420;SDS011;52028;50.658;14.004;2022-07-29T15:17:32;4.20;;;2.83;;
65420;SDS011;52028;50.658;14.004;2022-07-29T15:19:57;7.15;;;3.45;;
65420;SDS011;52028;50.658;14.004;2022-07-29T15:22:23;6.80;;;3.58;;
65420;SDS011;52028;50.658;14.004;2022-07-29T15:24:48;5.10;;;2.92;;
65420;SDS011;52028;50.658;14.004;2022-07-29T15:27:17;4.18;;;3.03;;
65420;SDS011;52028;50.658;14.004;2022-07-29T15:29:42;4.82;;;3.38;;
65420;SDS011;52028;50.658;14.004;2022-07-29T15:32:08;4.30;;;3.20;;
65420;SDS011;52028;50.658;14.004;2022-07-29T15:34:34;5.80;;;3.15;;
65420;SDS011;52028;50.658;14.004;2022-07-29T15:37:00;6.20;;;3.25;;
65420;SDS011;52028;50.658;14.004;2022-07-29T15:39:26;4.47;;;3.28;;